sensor_id;sensor_type;location;lat;lon;timestamp;pressure;altitude;pressure_sealevel;temperature;humidity
43119;BME280;28729;49.838;8.650;2023-01-27T00:00:24;100196.22;;;0.83;100.00
43119;BME280;28729;49.838;8.650;2023-01-27T00:04:25;100204.84;;;0.87;100.00
43119;BME280;28729;49.838;8.650;2023-01-27T00:08:27;100190.09;;;0.89;100.00
43119;BME280;28729;49.838;8.650;2023-01-27T00:12:30;100192.47;;;0.84;100.00
43119;BME280;28729;49.838;8.650;2023-01-27T00:16:51;100182.31;;;0.86;100.00
43119;BME280;28729;49.838;8.650;2023-01-27T00:20:53;100186.69;;;0.87;100.00
43119;BME280;28729;49.838;8.650;2023-01-27T00:25:13;100185.31;;;0.91;100.00
43119;BME280;28729;49.838;8.650;2023-01-27T00:29:15;100179.53;;;0.95;100.00
43119;BME280;28729;49.838;8.650;2023-01-27T00:33:16;100171.91;;;0.98;100.00
43119;BME280;28729;49.838;8.650;2023-01-27T00:37:30;100176.81;;;0.95;100.00
43119;BME280;28729;49.838;8.650;2023-01-27T00:41:31;100176.34;;;0.91;100.00
43119;BME280;28729;49.838;8.650;2023-01-27T00:45:34;100177.00;;;0.93;100.00
43119;BME280;28729;49.838;8.650;2023-01-27T00:49:51;100175.47;;;0.99;100.00
43119;BME280;28729;49.838;8.650;2023-01-27T00:53:53;100171.72;;;1.00;100.00
43119;BME280;28729;49.838;8.650;2023-01-27T00:57:55;100171.53;;;1.01;100.00
43119;BME280;28729;49.838;8.650;2023-01-27T01:01:56;100176.09;;;1.01;100.00
43119;BME280;28729;49.838;8.650;2023-01-27T01:05:59;100174.25;;;1.01;100.00
43119;BME280;28729;49.838;8.650;2023-01-27T01:10:02;100181.88;;;0.98;100.00
43119;BME280;28729;49.838;8.650;2023-01-27T01:14:04;100181.72;;;0.99;100.00
43119;BME280;28729;49.838;8.650;2023-01-27T01:18:07;100188.13;;;1.06;100.00
43119;BME280;28729;49.838;8.650;2023-01-27T01:22:09;100183.34;;;1.08;100.00
43119;BME280;28729;49.838;8.650;2023-01-27T01:26:12;100186.91;;;1.09;100.00
43119;BME280;28729;49.838;8.650;2023-01-27T01:30:14;100189.28;;;1.12;100.00
43119;BME280;28729;49.838;8.650;2023-01-27T01:34:16;100194.03;;;1.10;100.00
43119;BME280;28729;49.838;8.650;2023-01-27T01:38:18;100190.78;;;1.14;100.00
43119;BME280;28729;49.838;8.650;2023-01-27T01:42:19;100190.78;;;1.14;100.00
43119;BME280;28729;49.838;8.650;2023-01-27T01:46:21;100192.28;;;1.17;100.00
43119;BME280;28729;49.838;8.650;2023-01-27T01:50:23;100183.78;;;1.20;100.00
43119;BME280;28729;49.838;8.650;2023-01-27T01:54:28;100182.97;;;1.20;100.00
43119;BME280;28729;49.838;8.650;2023-01-27T01:58:31;100181.59;;;1.16;100.00
43119;BME280;28729;49.838;8.650;2023-01-27T02:02:34;100171.31;;;1.11;100.00
43119;BME280;28729;49.838;8.650;2023-01-27T02:06:42;100181.13;;;1.12;100.00
43119;BME280;28729;49.838;8.650;2023-01-27T02:10:46;100168.22;;;1.14;100.00
43119;BME280;28729;49.838;8.650;2023-01-27T02:14:49;100167.91;;;1.09;100.00
43119;BME280;28729;49.838;8.650;2023-01-27T02:18:50;100161.16;;;1.05;100.00
43119;BME280;28729;49.838;8.650;2023-01-27T02:23:04;100168.09;;;1.07;100.00
43119;BME280;28729;49.838;8.650;2023-01-27T02:27:10;100162.97;;;1.12;100.00
43119;BME280;28729;49.838;8.650;2023-01-27T02:31:14;100165.31;;;1.16;100.00
43119;BME280;28729;49.838;8.650;2023-01-27T02:35:23;100157.50;;;1.21;100.00
43119;BME280;28729;49.838;8.650;2023-01-27T02:39:36;100165.28;;;1.24;100.00
43119;BME280;28729;49.838;8.650;2023-01-27T02:43:40;100174.94;;;1.26;100.00
43119;BME280;28729;49.838;8.650;2023-01-27T02:47:42;100173.53;;;1.30;100.00
43119;BME280;28729;49.838;8.650;2023-01-27T02:51:44;100176.06;;;1.32;100.00
43119;BME280;28729;49.838;8.650;2023-01-27T02:55:45;100182.03;;;1.27;100.00
43119;BME280;28729;49.838;8.650;2023-01-27T02:59:47;100184.59;;;1.29;100.00
43119;BME280;28729;49.838;8.650;2023-01-27T03:03:49;100178.16;;;1.22;100.00
43119;BME280;28729;49.838;8.650;2023-01-27T03:07:52;100179.22;;;1.21;100.00
43119;BME280;28729;49.838;8.650;2023-01-27T03:11:54;100187.34;;;1.21;100.00
43119;BME280;28729;49.838;8.650;2023-01-27T03:16:28;100189.53;;;1.25;100.00
43119;BME280;28729;49.838;8.650;2023-01-27T03:20:50;100179.63;;;1.32;100.00
43119;BME280;28729;49.838;8.650;2023-01-27T03:24:51;100193.88;;;1.34;100.00
43119;BME280;28729;49.838;8.650;2023-01-27T03:28:53;100185.84;;;1.41;100.00
43119;BME280;28729;49.838;8.650;2023-01-27T03:33:16;100185.25;;;1.31;100.00
43119;BME280;28729;49.838;8.650;2023-01-27T03:37:30;100190.19;;;1.27;100.00
43119;BME280;28729;49.838;8.650;2023-01-27T03:41:51;100190.69;;;1.31;100.00
43119;BME280;28729;49.838;8.650;2023-01-27T03:46:12;100192.53;;;1.30;100.00
43119;BME280;28729;49.838;8.650;2023-01-27T03:50:20;100190.84;;;1.29;100.00
43119;BME280;28729;49.838;8.650;2023-01-27T03:54:38;100190.13;;;1.35;100.00
43119;BME280;28729;49.838;8.650;2023-01-27T03:58:40;100183.81;;;1.43;100.00
43119;BME280;28729;49.838;8.650;2023-01-27T04:02:41;100191.09;;;1.43;100.00
43119;BME280;28729;49.838;8.650;2023-01-27T04:07:02;100193.44;;;1.46;100.00
43119;BME280;28729;49.838;8.650;2023-01-27T04:11:04;100201.06;;;1.50;100.00
43119;BME280;28729;49.838;8.650;2023-01-27T04:15:24;100197.03;;;1.46;100.00
43119;BME280;28729;49.838;8.650;2023-01-27T04:19:26;100196.34;;;1.44;100.00
43119;BME280;28729;49.838;8.650;2023-01-27T04:23:28;100201.41;;;1.47;100.00
43119;BME280;28729;49.838;8.650;2023-01-27T04:27:29;100196.81;;;1.48;100.00
43119;BME280;28729;49.838;8.650;2023-01-27T04:31:31;100197.50;;;1.50;100.00
43119;BME280;28729;49.838;8.650;2023-01-27T04:35:33;100202.94;;;1.50;100.00
43119;BME280;28729;49.838;8.650;2023-01-27T04:39:39;100206.69;;;1.49;100.00
43119;BME280;28729;49.838;8.650;2023-01-27T04:43:42;100199.19;;;1.51;100.00
43119;BME280;28729;49.838;8.650;2023-01-27T04:47:43;100206.69;;;1.49;100.00
43119;BME280;28729;49.838;8.650;2023-01-27T04:51:45;100208.00;;;1.53;100.00
43119;BME280;28729;49.838;8.650;2023-01-27T04:55:48;100218.19;;;1.51;100.00
43119;BME280;28729;49.838;8.650;2023-01-27T04:59:50;100221.09;;;1.49;100.00
43119;BME280;28729;49.838;8.650;2023-01-27T05:03:52;100216.03;;;1.46;100.00
43119;BME280;28729;49.838;8.650;2023-01-27T05:07:54;100221.25;;;1.48;100.00
43119;BME280;28729;49.838;8.650;2023-01-27T05:11:55;100217.81;;;1.54;100.00
43119;BME280;28729;49.838;8.650;2023-01-27T05:16:12;100215.47;;;1.51;100.00
43119;BME280;28729;49.838;8.650;2023-01-27T05:20:14;100219.22;;;1.50;100.00
43119;BME280;28729;49.838;8.650;2023-01-27T05:24:16;100214.09;;;1.55;100.00
43119;BME280;28729;49.838;8.650;2023-01-27T05:28:17;100217.28;;;1.58;100.00
43119;BME280;28729;49.838;8.650;2023-01-27T05:32:19;100228.31;;;1.57;100.00
43119;BME280;28729;49.838;8.650;2023-01-27T05:36:22;100229.66;;;1.61;100.00
43119;BME280;28729;49.838;8.650;2023-01-27T05:40:24;100231.34;;;1.62;100.00
43119;BME280;28729;49.838;8.650;2023-01-27T05:44:25;100236.09;;;1.60;100.00
43119;BME280;28729;49.838;8.650;2023-01-27T05:48:27;100236.47;;;1.57;100.00
43119;BME280;28729;49.838;8.650;2023-01-27T05:52:29;100239.19;;;1.57;100.00
43119;BME280;28729;49.838;8.650;2023-01-27T05:56:31;100235.16;;;1.53;100.00
43119;BME280;28729;49.838;8.650;2023-01-27T06:00:33;100235.63;;;1.56;100.00
43119;BME280;28729;49.838;8.650;2023-01-27T06:04:35;100243.66;;;1.50;100.00
43119;BME280;28729;49.838;8.650;2023-01-27T06:08:37;100240.28;;;1.48;100.00
43119;BME280;28729;49.838;8.650;2023-01-27T06:12:38;100235.53;;;1.50;100.00
43119;BME280;28729;49.838;8.650;2023-01-27T06:16:40;100242.31;;;1.46;100.00
43119;BME280;28729;49.838;8.650;2023-01-27T06:20:44;100249.81;;;1.44;100.00
43119;BME280;28729;49.838;8.650;2023-01-27T06:24:46;100250.31;;;1.47;100.00
43119;BME280;28729;49.838;8.650;2023-01-27T06:28:48;100256.88;;;1.53;100.00
43119;BME280;28729;49.838;8.650;2023-01-27T06:32:49;100250.97;;;1.49;100.00
43119;BME280;28729;49.838;8.650;2023-01-27T06:36:54;100254.53;;;1.50;100.00
43119;BME280;28729;49.838;8.650;2023-01-27T06:40:55;100258.09;;;1.50;100.00
43119;BME280;28729;49.838;8.650;2023-01-27T06:44:57;100264.72;;;1.48;100.00
43119;BME280;28729;49.838;8.650;2023-01-27T06:48:59;100278.97;;;1.50;100.00
43119;BME280;28729;49.838;8.650;2023-01-27T06:53:02;100269.78;;;1.51;100.00
43119;BME280;28729;49.838;8.650;2023-01-27T06:57:04;100280.19;;;1.47;100.00
43119;BME280;28729;49.838;8.650;2023-01-27T07:01:06;100280.66;;;1.51;100.00
43119;BME280;28729;49.838;8.650;2023-01-27T07:05:09;100283.22;;;1.52;100.00
43119;BME280;28729;49.838;8.650;2023-01-27T07:09:11;100285.72;;;1.54;100.00
43119;BME280;28729;49.838;8.650;2023-01-27T07:13:13;100287.28;;;1.48;100.00
43119;BME280;28729;49.838;8.650;2023-01-27T07:17:15;100290.00;;;1.48;100.00
43119;BME280;28729;49.838;8.650;2023-01-27T07:21:16;100302.88;;;1.54;100.00
43119;BME280;28729;49.838;8.650;2023-01-27T07:25:18;100296.94;;;1.51;100.00
43119;BME280;28729;49.838;8.650;2023-01-27T07:29:20;100299.03;;;1.49;100.00
43119;BME280;28729;49.838;8.650;2023-01-27T07:33:21;100307.47;;;1.54;100.00
43119;BME280;28729;49.838;8.650;2023-01-27T07:37:23;100308.72;;;1.66;100.00
43119;BME280;28729;49.838;8.650;2023-01-27T07:41:25;100320.88;;;1.78;100.00
43119;BME280;28729;49.838;8.650;2023-01-27T07:45:27;100320.66;;;1.88;100.00
43119;BME280;28729;49.838;8.650;2023-01-27T07:49:29;100322.16;;;1.91;100.00
43119;BME280;28729;49.838;8.650;2023-01-27T07:53:31;100322.09;;;1.99;100.00
43119;BME280;28729;49.838;8.650;2023-01-27T07:57:33;100320.03;;;2.01;100.00
43119;BME280;28729;49.838;8.650;2023-01-27T08:01:35;100330.28;;;2.14;100.00
43119;BME280;28729;49.838;8.650;2023-01-27T08:05:37;100335.50;;;2.23;100.00
43119;BME280;28729;49.838;8.650;2023-01-27T08:09:38;100327.47;;;2.30;100.00
43119;BME280;28729;49.838;8.650;2023-01-27T08:13:40;100337.22;;;2.39;100.00
43119;BME280;28729;49.838;8.650;2023-01-27T08:17:43;100343.34;;;2.41;100.00
43119;BME280;28729;49.838;8.650;2023-01-27T08:21:44;100331.72;;;2.47;100.00
43119;BME280;28729;49.838;8.650;2023-01-27T08:25:53;100337.72;;;2.58;100.00
43119;BME280;28729;49.838;8.650;2023-01-27T08:29:57;100335.09;;;2.64;100.00
43119;BME280;28729;49.838;8.650;2023-01-27T08:33:58;100346.75;;;2.73;100.00
43119;BME280;28729;49.838;8.650;2023-01-27T08:38:00;100345.63;;;2.82;100.00
43119;BME280;28729;49.838;8.650;2023-01-27T08:42:02;100354.94;;;2.88;100.00
43119;BME280;28729;49.838;8.650;2023-01-27T08:46:07;100361.44;;;2.87;100.00
43119;BME280;28729;49.838;8.650;2023-01-27T08:50:09;100377.09;;;2.85;100.00
43119;BME280;28729;49.838;8.650;2023-01-27T08:54:12;100371.19;;;2.81;100.00
43119;BME280;28729;49.838;8.650;2023-01-27T08:58:15;100373.59;;;2.76;100.00
43119;BME280;28729;49.838;8.650;2023-01-27T09:02:17;100378.94;;;2.69;100.00
43119;BME280;28729;49.838;8.650;2023-01-27T09:06:21;100376.22;;;2.69;100.00
43119;BME280;28729;49.838;8.650;2023-01-27T09:10:22;100377.16;;;2.77;100.00
43119;BME280;28729;49.838;8.650;2023-01-27T09:14:24;100383.88;;;2.89;100.00
43119;BME280;28729;49.838;8.650;2023-01-27T09:18:26;100385.84;;;2.95;100.00
43119;BME280;28729;49.838;8.650;2023-01-27T09:22:28;100389.03;;;3.13;100.00
43119;BME280;28729;49.838;8.650;2023-01-27T09:26:29;100393.16;;;3.24;100.00
43119;BME280;28729;49.838;8.650;2023-01-27T09:30:31;100399.47;;;3.25;100.00
43119;BME280;28729;49.838;8.650;2023-01-27T09:34:33;100394.88;;;3.25;100.00
43119;BME280;28729;49.838;8.650;2023-01-27T09:38:43;100399.75;;;3.30;100.00
43119;BME280;28729;49.838;8.650;2023-01-27T09:51:53;100394.97;;;3.32;100.00
43119;BME280;28729;49.838;8.650;2023-01-27T09:56:13;100399.94;;;3.28;100.00
43119;BME280;28729;49.838;8.650;2023-01-27T10:18:05;100394.25;;;4.10;100.00
43119;BME280;28729;49.838;8.650;2023-01-27T10:26:22;100389.59;;;4.26;100.00
43119;BME280;28729;49.838;8.650;2023-01-27T10:30:35;100391.38;;;4.19;100.00
43119;BME280;28729;49.838;8.650;2023-01-27T10:34:45;100391.59;;;4.39;100.00
43119;BME280;28729;49.838;8.650;2023-01-27T10:43:17;100365.63;;;4.71;100.00
43119;BME280;28729;49.838;8.650;2023-01-27T10:51:57;100377.91;;;5.16;100.00
43119;BME280;28729;49.838;8.650;2023-01-27T10:56:19;100375.84;;;5.18;100.00
43119;BME280;28729;49.838;8.650;2023-01-27T11:00:38;100367.66;;;5.18;100.00
43119;BME280;28729;49.838;8.650;2023-01-27T11:05:04;100358.09;;;5.08;100.00
43119;BME280;28729;49.838;8.650;2023-01-27T11:13:26;100360.94;;;4.93;100.00
43119;BME280;28729;49.838;8.650;2023-01-27T11:17:36;100367.25;;;4.93;100.00
43119;BME280;28729;49.838;8.650;2023-01-27T11:21:40;100364.38;;;5.01;100.00
43119;BME280;28729;49.838;8.650;2023-01-27T11:25:44;100363.16;;;5.11;100.00
43119;BME280;28729;49.838;8.650;2023-01-27T11:29:52;100357.31;;;5.14;100.00
43119;BME280;28729;49.838;8.650;2023-01-27T11:34:12;100357.47;;;5.06;100.00
43119;BME280;28729;49.838;8.650;2023-01-27T11:38:19;100353.56;;;5.15;100.00
43119;BME280;28729;49.838;8.650;2023-01-27T11:42:21;100359.47;;;5.25;100.00
43119;BME280;28729;49.838;8.650;2023-01-27T11:46:23;100356.47;;;5.55;99.68
43119;BME280;28729;49.838;8.650;2023-01-27T11:50:29;100348.78;;;5.78;96.88
43119;BME280;28729;49.838;8.650;2023-01-27T11:54:36;100354.19;;;5.65;94.77
43119;BME280;28729;49.838;8.650;2023-01-27T11:58:49;100344.88;;;5.53;94.20
43119;BME280;28729;49.838;8.650;2023-01-27T12:03:05;100346.38;;;5.55;94.69
43119;BME280;28729;49.838;8.650;2023-01-27T12:07:23;100352.09;;;5.60;95.31
43119;BME280;28729;49.838;8.650;2023-01-27T12:11:30;100346.78;;;5.52;94.36
43119;BME280;28729;49.838;8.650;2023-01-27T12:15:33;100348.00;;;5.43;95.48
43119;BME280;28729;49.838;8.650;2023-01-27T12:19:39;100340.63;;;5.37;95.32
43119;BME280;28729;49.838;8.650;2023-01-27T12:23:52;100338.72;;;5.37;96.53
43119;BME280;28729;49.838;8.650;2023-01-27T12:27:58;100343.50;;;5.29;95.42
43119;BME280;28729;49.838;8.650;2023-01-27T12:32:01;100339.53;;;5.31;95.94
43119;BME280;28729;49.838;8.650;2023-01-27T12:36:11;100333.88;;;5.33;94.95
43119;BME280;28729;49.838;8.650;2023-01-27T12:40:18;100328.00;;;5.36;94.64
43119;BME280;28729;49.838;8.650;2023-01-27T12:44:20;100327.41;;;5.47;93.49
43119;BME280;28729;49.838;8.650;2023-01-27T12:48:29;100329.38;;;5.66;93.59
43119;BME280;28729;49.838;8.650;2023-01-27T12:52:31;100331.56;;;5.91;93.73
43119;BME280;28729;49.838;8.650;2023-01-27T12:56:33;100327.19;;;6.03;92.35
43119;BME280;28729;49.838;8.650;2023-01-27T13:00:35;100322.19;;;6.07;91.05
43119;BME280;28729;49.838;8.650;2023-01-27T13:04:37;100319.63;;;5.99;91.91
43119;BME280;28729;49.838;8.650;2023-01-27T13:08:40;100323.16;;;5.92;90.67
43119;BME280;28729;49.838;8.650;2023-01-27T13:12:56;100322.03;;;5.67;89.23
43119;BME280;28729;49.838;8.650;2023-01-27T13:16:58;100317.13;;;5.56;91.44
43119;BME280;28729;49.838;8.650;2023-01-27T13:21:12;100314.41;;;5.56;90.41
43119;BME280;28729;49.838;8.650;2023-01-27T13:25:22;100321.63;;;5.70;91.07
43119;BME280;28729;49.838;8.650;2023-01-27T13:29:31;100325.84;;;5.72;90.14
43119;BME280;28729;49.838;8.650;2023-01-27T13:33:42;100329.56;;;5.65;90.89
43119;BME280;28729;49.838;8.650;2023-01-27T13:38:05;100332.25;;;5.45;89.69
43119;BME280;28729;49.838;8.650;2023-01-27T13:42:18;100330.69;;;5.29;90.47
43119;BME280;28729;49.838;8.650;2023-01-27T13:46:26;100332.59;;;5.29;91.44
43119;BME280;28729;49.838;8.650;2023-01-27T13:50:34;100335.94;;;5.24;91.96
43119;BME280;28729;49.838;8.650;2023-01-27T13:54:41;100328.72;;;5.10;92.16
43119;BME280;28729;49.838;8.650;2023-01-27T14:03:33;100334.19;;;5.10;93.13
43119;BME280;28729;49.838;8.650;2023-01-27T14:07:51;100348.09;;;5.15;93.62
43119;BME280;28729;49.838;8.650;2023-01-27T14:12:11;100344.06;;;5.17;93.84
43119;BME280;28729;49.838;8.650;2023-01-27T14:16:51;100343.66;;;5.14;93.22
43119;BME280;28729;49.838;8.650;2023-01-27T14:21:16;100349.66;;;5.02;93.23
43119;BME280;28729;49.838;8.650;2023-01-27T14:25:49;100344.16;;;4.96;93.42
43119;BME280;28729;49.838;8.650;2023-01-27T14:30:24;100349.22;;;4.99;93.91
43119;BME280;28729;49.838;8.650;2023-01-27T14:43:31;100355.09;;;4.96;94.19
43119;BME280;28729;49.838;8.650;2023-01-27T14:51:45;100367.47;;;4.92;93.61
43119;BME280;28729;49.838;8.650;2023-01-27T15:00:26;100371.44;;;4.89;93.27
43119;BME280;28729;49.838;8.650;2023-01-27T15:04:50;100380.06;;;4.93;92.96
43119;BME280;28729;49.838;8.650;2023-01-27T15:22:42;100390.84;;;5.01;93.28
43119;BME280;28729;49.838;8.650;2023-01-27T15:26:48;100405.06;;;4.90;93.04
43119;BME280;28729;49.838;8.650;2023-01-27T15:39:30;100417.56;;;4.77;94.04
43119;BME280;28729;49.838;8.650;2023-01-27T15:44:13;100415.41;;;4.73;93.77
43119;BME280;28729;49.838;8.650;2023-01-27T15:48:21;100403.59;;;4.66;94.14
43119;BME280;28729;49.838;8.650;2023-01-27T15:52:29;100412.56;;;4.60;94.05
43119;BME280;28729;49.838;8.650;2023-01-27T15:56:47;100411.13;;;4.64;94.54
43119;BME280;28729;49.838;8.650;2023-01-27T16:00:53;100407.91;;;4.53;94.46
43119;BME280;28729;49.838;8.650;2023-01-27T16:05:15;100411.81;;;4.44;94.47
43119;BME280;28729;49.838;8.650;2023-01-27T16:09:41;100421.94;;;4.50;94.55
43119;BME280;28729;49.838;8.650;2023-01-27T16:13:43;100423.16;;;4.48;94.88
43119;BME280;28729;49.838;8.650;2023-01-27T16:22:15;100425.38;;;4.38;95.14
43119;BME280;28729;49.838;8.650;2023-01-27T16:27:06;100424.91;;;4.34;95.72
43119;BME280;28729;49.838;8.650;2023-01-27T16:35:19;100431.75;;;4.23;95.44
43119;BME280;28729;49.838;8.650;2023-01-27T16:39:31;100434.66;;;4.22;95.92
43119;BME280;28729;49.838;8.650;2023-01-27T16:47:59;100438.88;;;4.24;96.13
43119;BME280;28729;49.838;8.650;2023-01-27T16:52:04;100445.56;;;4.22;96.20
43119;BME280;28729;49.838;8.650;2023-01-27T16:56:16;100453.34;;;4.25;96.57
43119;BME280;28729;49.838;8.650;2023-01-27T17:00:23;100450.63;;;4.25;96.29
43119;BME280;28729;49.838;8.650;2023-01-27T17:04:29;100456.09;;;4.25;96.81
43119;BME280;28729;49.838;8.650;2023-01-27T17:08:42;100459.03;;;4.23;96.72
43119;BME280;28729;49.838;8.650;2023-01-27T17:12:49;100465.31;;;4.24;96.55
43119;BME280;28729;49.838;8.650;2023-01-27T17:16:51;100470.59;;;4.25;96.92
43119;BME280;28729;49.838;8.650;2023-01-27T17:20:53;100465.13;;;4.25;96.97
43119;BME280;28729;49.838;8.650;2023-01-27T17:25:01;100472.94;;;4.28;97.22
43119;BME280;28729;49.838;8.650;2023-01-27T17:29:03;100473.03;;;4.20;97.43
43119;BME280;28729;49.838;8.650;2023-01-27T17:33:07;100473.50;;;4.24;97.54
43119;BME280;28729;49.838;8.650;2023-01-27T17:37:19;100463.63;;;4.23;97.64
43119;BME280;28729;49.838;8.650;2023-01-27T17:41:35;100471.44;;;4.26;97.96
43119;BME280;28729;49.838;8.650;2023-01-27T17:45:37;100470.00;;;4.30;98.35
43119;BME280;28729;49.838;8.650;2023-01-27T17:49:39;100472.34;;;4.33;98.28
43119;BME280;28729;49.838;8.650;2023-01-27T17:53:42;100474.41;;;4.31;98.46
43119;BME280;28729;49.838;8.650;2023-01-27T17:57:45;100471.28;;;4.34;98.61
43119;BME280;28729;49.838;8.650;2023-01-27T18:01:49;100473.13;;;4.27;98.43
43119;BME280;28729;49.838;8.650;2023-01-27T18:05:53;100486.56;;;4.28;98.62
43119;BME280;28729;49.838;8.650;2023-01-27T18:09:55;100485.25;;;4.24;98.26
43119;BME280;28729;49.838;8.650;2023-01-27T18:14:08;100487.59;;;4.27;98.53
43119;BME280;28729;49.838;8.650;2023-01-27T18:22:19;100498.78;;;4.32;98.60
43119;BME280;28729;49.838;8.650;2023-01-27T18:30:33;100499.44;;;4.34;98.93
43119;BME280;28729;49.838;8.650;2023-01-27T18:34:45;100509.09;;;4.37;99.71
43119;BME280;28729;49.838;8.650;2023-01-27T18:38:49;100504.31;;;4.39;99.73
43119;BME280;28729;49.838;8.650;2023-01-27T18:42:52;100509.09;;;4.37;99.86
43119;BME280;28729;49.838;8.650;2023-01-27T18:46:55;100513.25;;;4.33;100.00
43119;BME280;28729;49.838;8.650;2023-01-27T18:50:59;100512.81;;;4.29;100.00
43119;BME280;28729;49.838;8.650;2023-01-27T18:55:20;100516.84;;;4.33;100.00
43119;BME280;28729;49.838;8.650;2023-01-27T18:59:22;100510.34;;;4.34;100.00
43119;BME280;28729;49.838;8.650;2023-01-27T19:03:25;100522.28;;;4.33;100.00
43119;BME280;28729;49.838;8.650;2023-01-27T19:07:27;100513.94;;;4.35;100.00
43119;BME280;28729;49.838;8.650;2023-01-27T19:11:29;100516.00;;;4.33;100.00
43119;BME280;28729;49.838;8.650;2023-01-27T19:15:36;100513.66;;;4.30;100.00
43119;BME280;28729;49.838;8.650;2023-01-27T19:19:39;100521.66;;;4.31;100.00
43119;BME280;28729;49.838;8.650;2023-01-27T19:23:40;100527.97;;;4.32;100.00
43119;BME280;28729;49.838;8.650;2023-01-27T19:27:46;100525.88;;;4.34;100.00
43119;BME280;28729;49.838;8.650;2023-01-27T19:31:49;100528.03;;;4.39;100.00
43119;BME280;28729;49.838;8.650;2023-01-27T19:35:57;100529.72;;;4.40;100.00
43119;BME280;28729;49.838;8.650;2023-01-27T19:40:00;100539.13;;;4.37;100.00
43119;BME280;28729;49.838;8.650;2023-01-27T19:44:03;100543.56;;;4.38;100.00
43119;BME280;28729;49.838;8.650;2023-01-27T19:48:12;100546.66;;;4.35;100.00
43119;BME280;28729;49.838;8.650;2023-01-27T19:52:14;100556.53;;;4.36;100.00
43119;BME280;28729;49.838;8.650;2023-01-27T19:56:20;100562.38;;;4.33;100.00
43119;BME280;28729;49.838;8.650;2023-01-27T20:00:28;100563.44;;;4.32;100.00
43119;BME280;28729;49.838;8.650;2023-01-27T20:04:30;100561.09;;;4.29;100.00
43119;BME280;28729;49.838;8.650;2023-01-27T20:08:31;100552.22;;;4.27;100.00
43119;BME280;28729;49.838;8.650;2023-01-27T20:12:34;100556.38;;;4.23;100.00
43119;BME280;28729;49.838;8.650;2023-01-27T20:16:35;100558.44;;;4.21;100.00
43119;BME280;28729;49.838;8.650;2023-01-27T20:20:37;100564.38;;;4.24;100.00
43119;BME280;28729;49.838;8.650;2023-01-27T20:24:38;100555.50;;;4.22;100.00
43119;BME280;28729;49.838;8.650;2023-01-27T20:28:40;100558.84;;;4.18;100.00
43119;BME280;28729;49.838;8.650;2023-01-27T20:32:42;100559.50;;;4.20;100.00
43119;BME280;28729;49.838;8.650;2023-01-27T20:36:43;100556.94;;;4.18;100.00
43119;BME280;28729;49.838;8.650;2023-01-27T20:40:45;100562.41;;;4.18;100.00
43119;BME280;28729;49.838;8.650;2023-01-27T20:44:47;100561.19;;;4.21;100.00
43119;BME280;28729;49.838;8.650;2023-01-27T20:48:48;100564.75;;;4.21;100.00
43119;BME280;28729;49.838;8.650;2023-01-27T20:52:50;100568.53;;;4.20;100.00
43119;BME280;28729;49.838;8.650;2023-01-27T20:56:52;100568.91;;;4.17;100.00
43119;BME280;28729;49.838;8.650;2023-01-27T21:01:05;100574.06;;;4.12;100.00
43119;BME280;28729;49.838;8.650;2023-01-27T21:05:09;100576.78;;;4.12;100.00
43119;BME280;28729;49.838;8.650;2023-01-27T21:09:10;100577.94;;;4.03;100.00
43119;BME280;28729;49.838;8.650;2023-01-27T21:13:12;100579.63;;;4.04;100.00
43119;BME280;28729;49.838;8.650;2023-01-27T21:17:14;100586.28;;;4.01;100.00
43119;BME280;28729;49.838;8.650;2023-01-27T21:21:26;100586.28;;;4.01;100.00
43119;BME280;28729;49.838;8.650;2023-01-27T21:25:28;100586.78;;;3.90;100.00
43119;BME280;28729;49.838;8.650;2023-01-27T21:29:30;100593.75;;;3.93;100.00
43119;BME280;28729;49.838;8.650;2023-01-27T21:33:36;100594.97;;;3.90;100.00
43119;BME280;28729;49.838;8.650;2023-01-27T21:37:38;100594.38;;;3.95;100.00
43119;BME280;28729;49.838;8.650;2023-01-27T21:41:40;100591.84;;;3.93;100.00
43119;BME280;28729;49.838;8.650;2023-01-27T21:45:57;100592.22;;;3.90;100.00
43119;BME280;28729;49.838;8.650;2023-01-27T21:50:03;100591.34;;;3.89;100.00
43119;BME280;28729;49.838;8.650;2023-01-27T21:54:06;100590.16;;;3.92;100.00
43119;BME280;28729;49.838;8.650;2023-01-27T21:58:07;100593.75;;;3.93;100.00
43119;BME280;28729;49.838;8.650;2023-01-27T22:02:11;100597.47;;;3.92;100.00
43119;BME280;28729;49.838;8.650;2023-01-27T22:06:12;100594.59;;;3.93;100.00
43119;BME280;28729;49.838;8.650;2023-01-27T22:10:17;100588.63;;;3.89;100.00
43119;BME280;28729;49.838;8.650;2023-01-27T22:14:20;100590.72;;;3.87;100.00
43119;BME280;28729;49.838;8.650;2023-01-27T22:18:21;100593.44;;;3.87;100.00
43119;BME280;28729;49.838;8.650;2023-01-27T22:22:23;100597.19;;;3.86;100.00
43119;BME280;28729;49.838;8.650;2023-01-27T22:26:24;100594.66;;;3.85;100.00
43119;BME280;28729;49.838;8.650;2023-01-27T22:30:26;100595.34;;;3.87;100.00
43119;BME280;28729;49.838;8.650;2023-01-27T22:34:28;100594.28;;;3.88;100.00
43119;BME280;28729;49.838;8.650;2023-01-27T22:38:29;100591.09;;;3.84;100.00
43119;BME280;28729;49.838;8.650;2023-01-27T22:42:31;100592.97;;;3.84;100.00
43119;BME280;28729;49.838;8.650;2023-01-27T22:46:33;100594.66;;;3.85;100.00
43119;BME280;28729;49.838;8.650;2023-01-27T22:50:35;100589.22;;;3.85;100.00
43119;BME280;28729;49.838;8.650;2023-01-27T22:54:37;100589.38;;;3.83;100.00
43119;BME280;28729;49.838;8.650;2023-01-27T22:58:38;100586.19;;;3.80;100.00
43119;BME280;28729;49.838;8.650;2023-01-27T23:02:40;100589.38;;;3.83;100.00
43119;BME280;28729;49.838;8.650;2023-01-27T23:06:42;100587.91;;;3.81;100.00
43119;BME280;28729;49.838;8.650;2023-01-27T23:10:43;100579.59;;;3.74;100.00
43119;BME280;28729;49.838;8.650;2023-01-27T23:14:45;100590.88;;;3.71;100.00
43119;BME280;28729;49.838;8.650;2023-01-27T23:18:46;100582.91;;;3.70;100.00